sensor_id;sensor_type;location;lat;lon;timestamp;pressure;altitude;pressure_sealevel;temperature;humidity
31082;BME280;17737;52.586;13.284;2023-04-08T00:00:54;101623.22;;;5.23;96.32
31082;BME280;17737;52.586;13.284;2023-04-08T00:03:22;101624.56;;;5.05;96.69
31082;BME280;17737;52.586;13.284;2023-04-08T00:05:51;101627.53;;;5.13;96.69
31082;BME280;17737;52.586;13.284;2023-04-08T00:08:20;101634.13;;;5.20;96.42
31082;BME280;17737;52.586;13.284;2023-04-08T00:10:48;101633.56;;;5.28;96.16
31082;BME280;17737;52.586;13.284;2023-04-08T00:13:17;101636.44;;;5.25;96.06
31082;BME280;17737;52.586;13.284;2023-04-08T00:15:45;101627.81;;;5.21;96.18
31082;BME280;17737;52.586;13.284;2023-04-08T00:18:13;101637.06;;;5.28;95.72
31082;BME280;17737;52.586;13.284;2023-04-08T00:20:43;101636.56;;;5.23;96.07
31082;BME280;17737;52.586;13.284;2023-04-08T00:23:11;101637.06;;;5.28;95.56
31082;BME280;17737;52.586;13.284;2023-04-08T00:25:39;101638.28;;;5.24;95.43
31082;BME280;17737;52.586;13.284;2023-04-08T00:28:08;101631.97;;;5.25;95.83
31082;BME280;17737;52.586;13.284;2023-04-08T00:30:37;101627.91;;;5.20;95.47
31082;BME280;17737;52.586;13.284;2023-04-08T00:33:05;101632.22;;;5.10;96.28
31082;BME280;17737;52.586;13.284;2023-04-08T00:35:34;101631.09;;;5.25;96.18
31082;BME280;17737;52.586;13.284;2023-04-08T00:38:02;101639.00;;;5.26;95.50
31082;BME280;17737;52.586;13.284;2023-04-08T00:40:33;101639.63;;;5.30;95.79
31082;BME280;17737;52.586;13.284;2023-04-08T00:43:01;101639.59;;;5.19;95.97
31082;BME280;17737;52.586;13.284;2023-04-08T00:45:29;101636.94;;;5.06;96.42
31082;BME280;17737;52.586;13.284;2023-04-08T00:47:59;101635.19;;;5.18;96.45
31082;BME280;17737;52.586;13.284;2023-04-08T00:50:28;101634.03;;;5.09;96.54
31082;BME280;17737;52.586;13.284;2023-04-08T00:52:56;101623.78;;;5.16;96.71
31082;BME280;17737;52.586;13.284;2023-04-08T00:55:24;101638.72;;;5.18;96.33
31082;BME280;17737;52.586;13.284;2023-04-08T00:57:54;101624.00;;;5.13;96.86
31082;BME280;17737;52.586;13.284;2023-04-08T01:00:23;101619.38;;;5.15;96.57
31082;BME280;17737;52.586;13.284;2023-04-08T01:02:58;101627.63;;;5.12;96.87
31082;BME280;17737;52.586;13.284;2023-04-08T01:05:44;101632.94;;;5.24;97.02
31082;BME280;17737;52.586;13.284;2023-04-08T01:08:20;101624.41;;;5.19;96.64
31082;BME280;17737;52.586;13.284;2023-04-08T01:10:53;101621.28;;;5.25;96.20
31082;BME280;17737;52.586;13.284;2023-04-08T01:13:30;101634.63;;;5.25;96.26
31082;BME280;17737;52.586;13.284;2023-04-08T01:16:04;101629.00;;;5.17;96.34
31082;BME280;17737;52.586;13.284;2023-04-08T01:18:35;101635.09;;;5.19;96.42
31082;BME280;17737;52.586;13.284;2023-04-08T01:21:05;101627.69;;;5.23;96.18
31082;BME280;17737;52.586;13.284;2023-04-08T01:23:39;101633.59;;;5.15;96.77
31082;BME280;17737;52.586;13.284;2023-04-08T01:26:20;101630.28;;;5.24;96.72
31082;BME280;17737;52.586;13.284;2023-04-08T01:28:52;101636.78;;;5.20;96.14
31082;BME280;17737;52.586;13.284;2023-04-08T01:31:23;101636.72;;;5.09;96.61
31082;BME280;17737;52.586;13.284;2023-04-08T01:33:52;101639.94;;;5.14;96.44
31082;BME280;17737;52.586;13.284;2023-04-08T01:36:21;101642.28;;;5.06;97.18
31082;BME280;17737;52.586;13.284;2023-04-08T01:38:52;101645.47;;;5.11;96.76
31082;BME280;17737;52.586;13.284;2023-04-08T01:41:22;101635.25;;;5.05;96.35
31082;BME280;17737;52.586;13.284;2023-04-08T01:43:50;101639.09;;;5.01;96.84
31082;BME280;17737;52.586;13.284;2023-04-08T01:46:20;101635.56;;;5.01;97.45
31082;BME280;17737;52.586;13.284;2023-04-08T01:48:49;101644.22;;;5.04;97.33
31082;BME280;17737;52.586;13.284;2023-04-08T01:51:19;101652.66;;;5.11;97.27
31082;BME280;17737;52.586;13.284;2023-04-08T01:53:48;101647.84;;;5.03;96.83
31082;BME280;17737;52.586;13.284;2023-04-08T01:56:22;101657.03;;;4.99;97.33
31082;BME280;17737;52.586;13.284;2023-04-08T01:58:54;101648.59;;;5.05;97.34
31082;BME280;17737;52.586;13.284;2023-04-08T02:01:28;101650.53;;;5.03;97.10
31082;BME280;17737;52.586;13.284;2023-04-08T02:03:59;101648.09;;;5.00;97.53
31082;BME280;17737;52.586;13.284;2023-04-08T02:06:30;101646.69;;;5.07;97.44
31082;BME280;17737;52.586;13.284;2023-04-08T02:08:59;101645.69;;;5.08;97.14
31082;BME280;17737;52.586;13.284;2023-04-08T02:11:29;101643.44;;;5.15;96.86
31082;BME280;17737;52.586;13.284;2023-04-08T02:13:57;101640.88;;;5.13;96.49
31082;BME280;17737;52.586;13.284;2023-04-08T02:16:35;101639.06;;;5.14;96.96
31082;BME280;17737;52.586;13.284;2023-04-08T02:19:14;101641.00;;;5.12;96.92
31082;BME280;17737;52.586;13.284;2023-04-08T02:21:49;101651.56;;;5.13;96.42
31082;BME280;17737;52.586;13.284;2023-04-08T02:24:25;101660.66;;;5.11;96.91
31082;BME280;17737;52.586;13.284;2023-04-08T02:26:56;101659.06;;;5.08;96.96
31082;BME280;17737;52.586;13.284;2023-04-08T02:29:26;101667.06;;;5.08;97.04
31082;BME280;17737;52.586;13.284;2023-04-08T02:31:58;101669.50;;;5.11;97.01
31082;BME280;17737;52.586;13.284;2023-04-08T02:34:29;101670.50;;;5.10;96.83
31082;BME280;17737;52.586;13.284;2023-04-08T02:36:58;101672.53;;;5.07;97.21
31082;BME280;17737;52.586;13.284;2023-04-08T02:39:30;101667.94;;;5.09;96.94
31082;BME280;17737;52.586;13.284;2023-04-08T02:41:59;101679.69;;;5.06;97.11
31082;BME280;17737;52.586;13.284;2023-04-08T02:44:27;101679.38;;;5.11;96.97
31082;BME280;17737;52.586;13.284;2023-04-08T02:46:55;101675.47;;;5.15;97.04
31082;BME280;17737;52.586;13.284;2023-04-08T02:49:23;101681.41;;;5.07;97.08
31082;BME280;17737;52.586;13.284;2023-04-08T02:51:51;101686.75;;;5.07;96.89
31082;BME280;17737;52.586;13.284;2023-04-08T02:54:19;101683.09;;;5.08;96.90
31082;BME280;17737;52.586;13.284;2023-04-08T02:56:47;101688.22;;;5.11;97.04
31082;BME280;17737;52.586;13.284;2023-04-08T02:59:17;101682.88;;;5.11;97.35
31082;BME280;17737;52.586;13.284;2023-04-08T03:01:45;101680.72;;;5.16;96.94
31082;BME280;17737;52.586;13.284;2023-04-08T03:04:13;101681.13;;;5.23;97.00
31082;BME280;17737;52.586;13.284;2023-04-08T03:06:41;101686.91;;;5.29;96.54
31082;BME280;17737;52.586;13.284;2023-04-08T03:09:09;101692.44;;;5.26;96.49
31082;BME280;17737;52.586;13.284;2023-04-08T03:11:37;101688.41;;;5.21;96.68
31082;BME280;17737;52.586;13.284;2023-04-08T03:14:05;101687.31;;;5.23;96.36
31082;BME280;17737;52.586;13.284;2023-04-08T03:16:34;101699.63;;;5.26;96.53
31082;BME280;17737;52.586;13.284;2023-04-08T03:19:02;101697.47;;;5.31;96.29
31082;BME280;17737;52.586;13.284;2023-04-08T03:21:30;101693.06;;;5.30;96.31
31082;BME280;17737;52.586;13.284;2023-04-08T03:23:58;101695.84;;;5.28;96.14
31082;BME280;17737;52.586;13.284;2023-04-08T03:26:26;101707.63;;;5.26;96.69
31082;BME280;17737;52.586;13.284;2023-04-08T03:28:55;101712.53;;;5.32;96.64
31082;BME280;17737;52.586;13.284;2023-04-08T03:31:23;101716.41;;;5.28;96.58
31082;BME280;17737;52.586;13.284;2023-04-08T03:33:53;101710.41;;;5.24;96.27
31082;BME280;17737;52.586;13.284;2023-04-08T03:36:21;101699.81;;;5.23;96.98
31082;BME280;17737;52.586;13.284;2023-04-08T03:38:49;101713.00;;;5.13;97.02
31082;BME280;17737;52.586;13.284;2023-04-08T03:41:18;101708.47;;;5.26;96.66
31082;BME280;17737;52.586;13.284;2023-04-08T03:43:46;101707.22;;;5.19;97.14
31082;BME280;17737;52.586;13.284;2023-04-08T03:46:14;101712.34;;;5.22;96.87
31082;BME280;17737;52.586;13.284;2023-04-08T03:48:42;101720.34;;;5.22;96.84
31082;BME280;17737;52.586;13.284;2023-04-08T03:51:12;101713.00;;;5.13;97.00
31082;BME280;17737;52.586;13.284;2023-04-08T03:53:40;101714.03;;;5.23;97.14
31082;BME280;17737;52.586;13.284;2023-04-08T03:56:08;101716.41;;;5.28;97.26
31082;BME280;17737;52.586;13.284;2023-04-08T03:58:36;101718.53;;;5.23;96.84
31082;BME280;17737;52.586;13.284;2023-04-08T04:01:04;101713.41;;;5.20;97.34
31082;BME280;17737;52.586;13.284;2023-04-08T04:03:32;101714.28;;;5.20;97.03
31082;BME280;17737;52.586;13.284;2023-04-08T04:06:01;101718.13;;;5.16;97.03
31082;BME280;17737;52.586;13.284;2023-04-08T04:08:30;101716.31;;;5.17;96.96
31082;BME280;17737;52.586;13.284;2023-04-08T04:10:58;101726.88;;;5.18;97.50
31082;BME280;17737;52.586;13.284;2023-04-08T04:13:26;101731.59;;;5.15;97.28
31082;BME280;17737;52.586;13.284;2023-04-08T04:15:54;101734.38;;;5.13;97.49
31082;BME280;17737;52.586;13.284;2023-04-08T04:18:23;101735.88;;;5.17;97.69
31082;BME280;17737;52.586;13.284;2023-04-08T04:20:51;101740.69;;;5.12;97.31
31082;BME280;17737;52.586;13.284;2023-04-08T04:23:19;101734.38;;;5.13;97.60
31082;BME280;17737;52.586;13.284;2023-04-08T04:25:51;101748.03;;;5.21;97.28
31082;BME280;17737;52.586;13.284;2023-04-08T04:28:19;101755.50;;;5.16;97.75
31082;BME280;17737;52.586;13.284;2023-04-08T04:30:47;101755.31;;;5.19;97.38
31082;BME280;17737;52.586;13.284;2023-04-08T04:33:15;101744.41;;;5.22;97.83
31082;BME280;17737;52.586;13.284;2023-04-08T04:35:42;101748.13;;;5.20;97.45
31082;BME280;17737;52.586;13.284;2023-04-08T04:38:11;101754.13;;;5.23;97.35
31082;BME280;17737;52.586;13.284;2023-04-08T04:40:39;101759.56;;;5.34;97.53
31082;BME280;17737;52.586;13.284;2023-04-08T04:43:08;101753.75;;;5.40;97.04
31082;BME280;17737;52.586;13.284;2023-04-08T04:45:36;101754.09;;;5.36;96.78
31082;BME280;17737;52.586;13.284;2023-04-08T04:48:04;101763.59;;;5.40;96.71
31082;BME280;17737;52.586;13.284;2023-04-08T04:50:33;101767.22;;;5.39;96.90
31082;BME280;17737;52.586;13.284;2023-04-08T04:53:01;101762.44;;;5.31;96.84
31082;BME280;17737;52.586;13.284;2023-04-08T04:57:57;101767.88;;;5.42;96.48
31082;BME280;17737;52.586;13.284;2023-04-08T05:00:26;101776.41;;;5.35;96.83
31082;BME280;17737;52.586;13.284;2023-04-08T05:02:54;101775.13;;;5.40;96.76
31082;BME280;17737;52.586;13.284;2023-04-08T05:05:22;101785.72;;;5.42;96.70
31082;BME280;17737;52.586;13.284;2023-04-08T05:07:51;101785.81;;;5.40;96.24
31082;BME280;17737;52.586;13.284;2023-04-08T05:10:19;101788.72;;;5.37;96.73
31082;BME280;17737;52.586;13.284;2023-04-08T05:12:47;101784.88;;;5.41;96.24
31082;BME280;17737;52.586;13.284;2023-04-08T05:15:15;101788.50;;;5.40;96.39
31082;BME280;17737;52.586;13.284;2023-04-08T05:17:45;101789.72;;;5.36;96.03
31082;BME280;17737;52.586;13.284;2023-04-08T05:20:13;101792.25;;;5.38;96.20
31082;BME280;17737;52.586;13.284;2023-04-08T05:22:43;101797.38;;;5.41;96.70
31082;BME280;17737;52.586;13.284;2023-04-08T05:25:11;101800.81;;;5.43;96.61
31082;BME280;17737;52.586;13.284;2023-04-08T05:27:39;101800.34;;;5.49;95.95
31082;BME280;17737;52.586;13.284;2023-04-08T05:30:08;101798.44;;;5.51;95.67
31082;BME280;17737;52.586;13.284;2023-04-08T05:32:36;101802.28;;;5.47;95.81
31082;BME280;17737;52.586;13.284;2023-04-08T05:35:07;101803.13;;;5.47;95.73
31082;BME280;17737;52.586;13.284;2023-04-08T05:37:36;101813.59;;;5.50;96.18
31082;BME280;17737;52.586;13.284;2023-04-08T05:40:05;101817.84;;;5.65;96.20
31082;BME280;17737;52.586;13.284;2023-04-08T05:42:33;101817.53;;;5.57;96.01
31082;BME280;17737;52.586;13.284;2023-04-08T05:45:02;101817.84;;;5.65;95.51
31082;BME280;17737;52.586;13.284;2023-04-08T05:47:31;101820.31;;;5.68;95.04
31082;BME280;17737;52.586;13.284;2023-04-08T05:49:59;101822.88;;;5.70;95.49
31082;BME280;17737;52.586;13.284;2023-04-08T05:52:29;101824.56;;;5.83;95.17
31082;BME280;17737;52.586;13.284;2023-04-08T05:54:57;101831.81;;;5.81;94.77
31082;BME280;17737;52.586;13.284;2023-04-08T05:57:25;101846.72;;;5.85;95.06
31082;BME280;17737;52.586;13.284;2023-04-08T05:59:53;101844.44;;;5.79;94.41
31082;BME280;17737;52.586;13.284;2023-04-08T06:02:21;101844.44;;;5.79;94.76
31082;BME280;17737;52.586;13.284;2023-04-08T06:04:49;101843.69;;;5.90;94.24
31082;BME280;17737;52.586;13.284;2023-04-08T06:07:17;101849.44;;;5.96;94.71
31082;BME280;17737;52.586;13.284;2023-04-08T06:09:46;101849.69;;;5.93;94.02
31082;BME280;17737;52.586;13.284;2023-04-08T06:12:14;101847.22;;;5.90;93.83
31082;BME280;17737;52.586;13.284;2023-04-08T06:14:42;101849.03;;;5.90;93.85
31082;BME280;17737;52.586;13.284;2023-04-08T06:17:10;101852.47;;;5.92;93.78
31082;BME280;17737;52.586;13.284;2023-04-08T06:19:38;101853.22;;;5.94;93.85
31082;BME280;17737;52.586;13.284;2023-04-08T06:22:07;101847.13;;;5.92;94.11
31082;BME280;17737;52.586;13.284;2023-04-08T06:24:34;101849.34;;;5.98;94.17
31082;BME280;17737;52.586;13.284;2023-04-08T06:27:04;101858.63;;;6.05;93.96
31082;BME280;17737;52.586;13.284;2023-04-08T06:29:32;101861.56;;;6.13;94.14
31082;BME280;17737;52.586;13.284;2023-04-08T06:32:00;101855.41;;;6.13;93.45
31082;BME280;17737;52.586;13.284;2023-04-08T06:34:29;101864.56;;;6.21;93.58
31082;BME280;17737;52.586;13.284;2023-04-08T06:36:57;101856.41;;;6.23;93.57
31082;BME280;17737;52.586;13.284;2023-04-08T06:39:24;101871.19;;;6.28;93.07
31082;BME280;17737;52.586;13.284;2023-04-08T06:41:52;101863.88;;;6.30;92.60
31082;BME280;17737;52.586;13.284;2023-04-08T06:44:22;101870.66;;;6.23;92.98
31082;BME280;17737;52.586;13.284;2023-04-08T06:46:50;101870.94;;;6.31;92.19
31082;BME280;17737;52.586;13.284;2023-04-08T06:49:18;101875.19;;;6.34;92.72
31082;BME280;17737;52.586;13.284;2023-04-08T06:51:46;101889.69;;;6.55;92.41
31082;BME280;17737;52.586;13.284;2023-04-08T06:54:14;101886.72;;;6.47;91.35
31082;BME280;17737;52.586;13.284;2023-04-08T06:56:42;101895.69;;;6.46;91.88
31082;BME280;17737;52.586;13.284;2023-04-08T06:59:10;101896.34;;;6.49;91.59
31082;BME280;17737;52.586;13.284;2023-04-08T07:01:39;101903.22;;;6.41;91.50
31082;BME280;17737;52.586;13.284;2023-04-08T07:04:07;101901.28;;;6.43;91.51
31082;BME280;17737;52.586;13.284;2023-04-08T07:06:35;101904.94;;;6.42;92.05
31082;BME280;17737;52.586;13.284;2023-04-08T07:09:03;101903.50;;;6.49;91.60
31082;BME280;17737;52.586;13.284;2023-04-08T07:11:32;101898.69;;;6.54;91.82
31082;BME280;17737;52.586;13.284;2023-04-08T07:14:00;101901.53;;;6.63;91.53
31082;BME280;17737;52.586;13.284;2023-04-08T07:16:28;101911.88;;;6.68;91.30
31082;BME280;17737;52.586;13.284;2023-04-08T07:18:57;101902.16;;;6.78;90.59
31082;BME280;17737;52.586;13.284;2023-04-08T07:21:25;101915.34;;;6.57;90.80
31082;BME280;17737;52.586;13.284;2023-04-08T07:23:53;101918.38;;;6.53;91.26
31082;BME280;17737;52.586;13.284;2023-04-08T07:26:21;101919.41;;;6.63;91.48
31082;BME280;17737;52.586;13.284;2023-04-08T07:28:49;101924.06;;;6.72;91.37
31082;BME280;17737;52.586;13.284;2023-04-08T07:31:18;101919.00;;;6.80;90.61
31082;BME280;17737;52.586;13.284;2023-04-08T07:33:46;101923.41;;;6.81;89.85
31082;BME280;17737;52.586;13.284;2023-04-08T07:36:16;101931.22;;;6.95;89.93
31082;BME280;17737;52.586;13.284;2023-04-08T07:38:44;101941.50;;;7.12;89.64
31082;BME280;17737;52.586;13.284;2023-04-08T07:41:12;101950.78;;;7.19;88.79
31082;BME280;17737;52.586;13.284;2023-04-08T07:43:40;101946.97;;;7.45;88.37
31082;BME280;17737;52.586;13.284;2023-04-08T07:46:08;101946.81;;;7.36;87.52
31082;BME280;17737;52.586;13.284;2023-04-08T07:48:36;101946.09;;;7.34;87.62
31082;BME280;17737;52.586;13.284;2023-04-08T07:51:04;101954.09;;;7.22;87.71
31082;BME280;17737;52.586;13.284;2023-04-08T07:53:38;101948.38;;;7.27;88.07
31082;BME280;17737;52.586;13.284;2023-04-08T07:56:11;101954.75;;;7.48;87.42
31082;BME280;17737;52.586;13.284;2023-04-08T07:58:40;101958.19;;;7.61;86.72
31082;BME280;17737;52.586;13.284;2023-04-08T08:01:16;101951.09;;;7.49;86.34
31082;BME280;17737;52.586;13.284;2023-04-08T08:03:45;101956.94;;;7.43;87.00
31082;BME280;17737;52.586;13.284;2023-04-08T08:06:14;101955.75;;;7.47;86.77
31082;BME280;17737;52.586;13.284;2023-04-08T08:08:44;101954.63;;;7.50;86.65
31082;BME280;17737;52.586;13.284;2023-04-08T08:11:12;101953.91;;;7.48;86.51
31082;BME280;17737;52.586;13.284;2023-04-08T08:13:40;101952.81;;;7.50;87.34
31082;BME280;17737;52.586;13.284;2023-04-08T08:16:08;101949.19;;;7.62;87.40
31082;BME280;17737;52.586;13.284;2023-04-08T08:18:37;101950.16;;;7.94;86.90
31082;BME280;17737;52.586;13.284;2023-04-08T08:21:07;101957.00;;;8.42;84.41
31082;BME280;17737;52.586;13.284;2023-04-08T08:23:39;101953.88;;;8.69;83.24
31082;BME280;17737;52.586;13.284;2023-04-08T08:26:09;101958.53;;;8.99;81.57
31082;BME280;17737;52.586;13.284;2023-04-08T08:28:37;101959.50;;;8.98;80.65
31082;BME280;17737;52.586;13.284;2023-04-08T08:31:06;101964.28;;;8.52;81.76
31082;BME280;17737;52.586;13.284;2023-04-08T08:33:34;101966.28;;;8.38;82.57
31082;BME280;17737;52.586;13.284;2023-04-08T08:36:02;101974.44;;;8.26;83.10
31082;BME280;17737;52.586;13.284;2023-04-08T08:38:31;101971.13;;;8.44;82.41
31082;BME280;17737;52.586;13.284;2023-04-08T08:41:00;101965.31;;;8.28;83.08
31082;BME280;17737;52.586;13.284;2023-04-08T08:43:31;101973.22;;;8.08;83.29
31082;BME280;17737;52.586;13.284;2023-04-08T08:46:00;101966.66;;;8.34;83.41
31082;BME280;17737;52.586;13.284;2023-04-08T08:48:28;101980.44;;;8.18;83.60
31082;BME280;17737;52.586;13.284;2023-04-08T08:50:58;101978.47;;;7.98;84.60
31082;BME280;17737;52.586;13.284;2023-04-08T08:53:28;101978.47;;;8.09;84.25
31082;BME280;17737;52.586;13.284;2023-04-08T08:56:01;101982.38;;;8.16;83.63
31082;BME280;17737;52.586;13.284;2023-04-08T08:58:33;101985.19;;;8.15;83.89
31082;BME280;17737;52.586;13.284;2023-04-08T09:01:01;101991.44;;;8.26;84.01
31082;BME280;17737;52.586;13.284;2023-04-08T09:03:29;101987.28;;;8.33;83.42
31082;BME280;17737;52.586;13.284;2023-04-08T09:05:59;101993.84;;;8.40;83.25
31082;BME280;17737;52.586;13.284;2023-04-08T09:08:30;101997.59;;;8.60;82.36
31082;BME280;17737;52.586;13.284;2023-04-08T09:11:12;102000.16;;;8.62;81.85
31082;BME280;17737;52.586;13.284;2023-04-08T09:13:45;102009.41;;;8.80;82.06
31082;BME280;17737;52.586;13.284;2023-04-08T09:16:14;102004.78;;;8.71;81.84
31082;BME280;17737;52.586;13.284;2023-04-08T09:18:45;102012.75;;;8.61;82.00
31082;BME280;17737;52.586;13.284;2023-04-08T09:21:16;102017.25;;;8.72;81.93
31082;BME280;17737;52.586;13.284;2023-04-08T09:23:45;102015.28;;;8.74;81.75
31082;BME280;17737;52.586;13.284;2023-04-08T09:26:16;102019.69;;;8.64;81.74
31082;BME280;17737;52.586;13.284;2023-04-08T09:28:59;102020.69;;;8.52;81.82
31082;BME280;17737;52.586;13.284;2023-04-08T09:31:52;102023.97;;;8.66;81.66
31082;BME280;17737;52.586;13.284;2023-04-08T09:34:22;102036.31;;;8.58;82.69
31082;BME280;17737;52.586;13.284;2023-04-08T09:36:51;102025.94;;;8.64;82.40
31082;BME280;17737;52.586;13.284;2023-04-08T09:39:20;102036.44;;;9.10;80.92
31082;BME280;17737;52.586;13.284;2023-04-08T09:41:49;102033.34;;;9.14;80.43
31082;BME280;17737;52.586;13.284;2023-04-08T09:44:20;102032.72;;;8.90;81.17
31082;BME280;17737;52.586;13.284;2023-04-08T09:46:55;102028.94;;;9.24;79.83
31082;BME280;17737;52.586;13.284;2023-04-08T09:49:32;102029.47;;;9.39;79.40
31082;BME280;17737;52.586;13.284;2023-04-08T09:52:06;102031.84;;;9.53;78.87
31082;BME280;17737;52.586;13.284;2023-04-08T09:54:42;102036.41;;;9.21;78.33
31082;BME280;17737;52.586;13.284;2023-04-08T09:57:16;102036.53;;;9.40;77.88
31082;BME280;17737;52.586;13.284;2023-04-08T09:59:52;102036.09;;;9.76;77.31
31082;BME280;17737;52.586;13.284;2023-04-08T10:02:29;102044.72;;;9.70;78.01
31082;BME280;17737;52.586;13.284;2023-04-08T10:05:00;102039.84;;;9.85;77.41
31082;BME280;17737;52.586;13.284;2023-04-08T10:07:34;102037.75;;;10.09;76.40
31082;BME280;17737;52.586;13.284;2023-04-08T10:10:04;102043.72;;;10.12;75.71
31082;BME280;17737;52.586;13.284;2023-04-08T10:12:33;102033.66;;;10.44;73.78
31082;BME280;17737;52.586;13.284;2023-04-08T10:15:24;102035.88;;;10.30;73.64
31082;BME280;17737;52.586;13.284;2023-04-08T10:17:54;102032.38;;;10.09;73.78
31082;BME280;17737;52.586;13.284;2023-04-08T10:20:41;102037.34;;;10.13;72.86
31082;BME280;17737;52.586;13.284;2023-04-08T10:23:12;102041.47;;;10.47;72.20
31082;BME280;17737;52.586;13.284;2023-04-08T10:25:42;102034.09;;;10.49;71.42
31082;BME280;17737;52.586;13.284;2023-04-08T10:28:24;102041.47;;;10.17;71.51
31082;BME280;17737;52.586;13.284;2023-04-08T10:30:55;102035.66;;;10.12;71.64
31082;BME280;17737;52.586;13.284;2023-04-08T10:33:31;102039.97;;;10.24;71.76
31082;BME280;17737;52.586;13.284;2023-04-08T10:36:13;102037.41;;;10.23;71.03
31082;BME280;17737;52.586;13.284;2023-04-08T10:38:41;102038.88;;;10.36;71.38
31082;BME280;17737;52.586;13.284;2023-04-08T10:41:10;102037.09;;;10.56;70.39
31082;BME280;17737;52.586;13.284;2023-04-08T10:43:39;102041.75;;;10.44;69.82
31082;BME280;17737;52.586;13.284;2023-04-08T10:46:10;102039.19;;;10.82;70.41
31082;BME280;17737;52.586;13.284;2023-04-08T10:48:38;102032.09;;;11.01;68.36
31082;BME280;17737;52.586;13.284;2023-04-08T10:51:06;102033.50;;;10.85;67.32
31082;BME280;17737;52.586;13.284;2023-04-08T10:53:35;102034.94;;;10.99;68.18
31082;BME280;17737;52.586;13.284;2023-04-08T10:56:05;102037.94;;;11.06;67.54
31082;BME280;17737;52.586;13.284;2023-04-08T10:58:47;102030.53;;;11.17;67.49
31082;BME280;17737;52.586;13.284;2023-04-08T11:01:17;102031.53;;;11.54;65.94
31082;BME280;17737;52.586;13.284;2023-04-08T11:03:47;102040.50;;;11.55;65.90
31082;BME280;17737;52.586;13.284;2023-04-08T11:06:16;102029.28;;;11.50;65.50
31082;BME280;17737;52.586;13.284;2023-04-08T11:08:44;102036.94;;;11.45;65.78
31082;BME280;17737;52.586;13.284;2023-04-08T11:11:13;102039.38;;;11.29;66.43
31082;BME280;17737;52.586;13.284;2023-04-08T11:13:43;102034.25;;;11.45;65.37
31082;BME280;17737;52.586;13.284;2023-04-08T11:16:21;102036.22;;;11.62;64.98
31082;BME280;17737;52.586;13.284;2023-04-08T11:19:07;102031.97;;;11.50;64.04
31082;BME280;17737;52.586;13.284;2023-04-08T11:21:35;102032.41;;;11.36;63.75
31082;BME280;17737;52.586;13.284;2023-04-08T11:24:11;102034.13;;;11.56;63.50
31082;BME280;17737;52.586;13.284;2023-04-08T11:26:40;102035.63;;;11.96;62.21
31082;BME280;17737;52.586;13.284;2023-04-08T11:29:10;102037.56;;;12.14;61.61
31082;BME280;17737;52.586;13.284;2023-04-08T11:31:43;102042.06;;;12.23;61.90
31082;BME280;17737;52.586;13.284;2023-04-08T11:34:21;102036.28;;;12.54;59.93
31082;BME280;17737;52.586;13.284;2023-04-08T11:36:50;102034.19;;;12.39;60.22
31082;BME280;17737;52.586;13.284;2023-04-08T11:39:21;102043.44;;;12.36;60.07
31082;BME280;17737;52.586;13.284;2023-04-08T11:41:49;102038.59;;;12.40;59.46
31082;BME280;17737;52.586;13.284;2023-04-08T11:44:18;102035.19;;;12.01;62.41
31082;BME280;17737;52.586;13.284;2023-04-08T11:46:52;102047.00;;;12.73;59.87
31082;BME280;17737;52.586;13.284;2023-04-08T11:49:22;102038.41;;;12.51;58.98
31082;BME280;17737;52.586;13.284;2023-04-08T11:51:55;102035.06;;;12.93;57.93
31082;BME280;17737;52.586;13.284;2023-04-08T11:54:25;102038.84;;;13.00;57.95
31082;BME280;17737;52.586;13.284;2023-04-08T11:56:54;102029.28;;;12.79;57.95
31082;BME280;17737;52.586;13.284;2023-04-08T11:59:23;102034.69;;;12.61;58.12
31082;BME280;17737;52.586;13.284;2023-04-08T12:01:56;102032.88;;;12.52;58.70
31082;BME280;17737;52.586;13.284;2023-04-08T12:04:24;102033.50;;;12.37;59.02
31082;BME280;17737;52.586;13.284;2023-04-08T12:06:52;102034.94;;;12.31;59.00
31082;BME280;17737;52.586;13.284;2023-04-08T12:09:23;102030.34;;;12.41;58.78
31082;BME280;17737;52.586;13.284;2023-04-08T12:11:51;102033.31;;;12.48;58.73
31082;BME280;17737;52.586;13.284;2023-04-08T12:14:19;102035.91;;;12.67;58.16
31082;BME280;17737;52.586;13.284;2023-04-08T12:16:53;102033.09;;;12.32;58.58
31082;BME280;17737;52.586;13.284;2023-04-08T12:19:23;102033.94;;;12.32;58.87
31082;BME280;17737;52.586;13.284;2023-04-08T12:21:51;102031.81;;;12.26;58.93
31082;BME280;17737;52.586;13.284;2023-04-08T12:24:18;102031.19;;;12.42;59.11
31082;BME280;17737;52.586;13.284;2023-04-08T12:26:47;102028.47;;;12.78;58.59
31082;BME280;17737;52.586;13.284;2023-04-08T12:29:15;102034.41;;;12.82;57.10
31082;BME280;17737;52.586;13.284;2023-04-08T12:31:43;102027.75;;;12.49;57.25
31082;BME280;17737;52.586;13.284;2023-04-08T12:34:11;102033.31;;;12.48;57.65
31082;BME280;17737;52.586;13.284;2023-04-08T12:36:40;102030.06;;;12.71;57.81
31082;BME280;17737;52.586;13.284;2023-04-08T12:39:08;102032.47;;;12.74;57.61
31082;BME280;17737;52.586;13.284;2023-04-08T12:41:36;102031.41;;;12.58;57.19
31082;BME280;17737;52.586;13.284;2023-04-08T12:44:04;102039.56;;;12.48;57.97
31082;BME280;17737;52.586;13.284;2023-04-08T12:46:33;102032.44;;;12.20;59.11
31082;BME280;17737;52.586;13.284;2023-04-08T12:49:01;102037.06;;;12.64;58.22
31082;BME280;17737;52.586;13.284;2023-04-08T12:51:30;102034.97;;;12.85;57.53
31082;BME280;17737;52.586;13.284;2023-04-08T12:54:00;102027.22;;;13.17;56.66
31082;BME280;17737;52.586;13.284;2023-04-08T12:56:29;102028.38;;;13.33;55.91
31082;BME280;17737;52.586;13.284;2023-04-08T12:58:57;102022.44;;;13.47;54.93
31082;BME280;17737;52.586;13.284;2023-04-08T13:01:29;102023.69;;;12.90;55.84
31082;BME280;17737;52.586;13.284;2023-04-08T13:04:03;102022.75;;;12.81;57.20